Airfield :







YOU CAN JOIN US ON...

 
LOGIN :

Register | Disclaimer

   EN    FR    IT 

 









Legend :    VFR   Marginal VFR   IFR   Intensive IFR   Very Intensive IFR
Visi :
Ceiling :
>= 8 km
>= 3000ft
5 to 8 km
1000 to 3000 ft
1500m to 5 km
500 to 1000 ft
800 to 1500m
200 to 500 ft
< 800m
< 200 ft
Symbols :   Thunderstorms  Fog  Heavy snow  Heavy precipitations  Wind > 20 kt







- Airport Elevation : 21 ft
- IATA code : YVM


CYVM - Qikiqtarjuac

CURRENT METAR :
  • 191600Z 20006KT 120V280 15SM FEW008 FEW015 BKN140 OVC250 05/01 A2955 RMK SF1CF1AC6CS2 SF TR CF TR SUN DIMLY VISBL SLP007

EXPIRED METARs :
  • 191500Z 16009G15KT 15SM FEW007 FEW015 OVC250 04/02 A2957 RMK SF1SC1CS7 SF TR SUN DIMLY VISBL SLP015
  • 191400Z 13013KT 15SM FEW007 FEW015 OVC250 04/02 A2960 RMK SF1SC1CC7 SF TR SUN DIMLY VISBL PRESFR SLP027

TAF AMD TAF CYVM
Valid from the 19 at 13:00 until the 20 at 01:00 UTC


191353Z 1913/2001 13015KT P6SM SCT020 OVC030
TEMPO 1913/2001 4SM BR OVC020
BECMG 1914/1916 19015G25KT RMK NXT FCST BY 191900Z
No reported NOTAMs for that airfield.



MET'MAP, your aeronautical weather chart ! - Copyright ORBIFLY December 2007 - Disclaimer

ORBIFLY MET'MAP TEAM :

Programming & Development : Alexandra Zaïnal
Concept & Development : Baudouin d'Aumeries
Co-Development & Prog : Marc-Olivier Méhu
Technical & hardware support : Manuel Goepfert

Contact : metmap@orbifly.com




SOURCES & CREDITS :

   NOAA